sensor_id;sensor_type;location;lat;lon;timestamp;P1;durP1;ratioP1;P2;durP2;ratioP2
78453;SDS011;67750;55.832;49.124;2023-07-29T00:00:41;11.03;;;5.67;;
78453;SDS011;67750;55.832;49.124;2023-07-29T00:03:11;8.08;;;5.00;;
78453;SDS011;67750;55.832;49.124;2023-07-29T00:05:40;9.50;;;5.72;;
78453;SDS011;67750;55.832;49.124;2023-07-29T00:08:10;11.08;;;6.10;;
78453;SDS011;67750;55.832;49.124;2023-07-29T00:10:39;10.60;;;5.75;;
78453;SDS011;67750;55.832;49.124;2023-07-29T00:13:09;10.65;;;5.35;;
78453;SDS011;67750;55.832;49.124;2023-07-29T00:15:38;9.90;;;6.55;;
78453;SDS011;67750;55.832;49.124;2023-07-29T00:18:08;9.10;;;5.72;;
78453;SDS011;67750;55.832;49.124;2023-07-29T00:23:07;11.12;;;5.97;;
78453;SDS011;67750;55.832;49.124;2023-07-29T00:25:37;12.23;;;5.85;;
78453;SDS011;67750;55.832;49.124;2023-07-29T00:28:06;10.25;;;6.20;;
78453;SDS011;67750;55.832;49.124;2023-07-29T00:30:35;10.98;;;6.10;;
78453;SDS011;67750;55.832;49.124;2023-07-29T00:33:05;13.65;;;6.75;;
78453;SDS011;67750;55.832;49.124;2023-07-29T00:35:34;7.55;;;6.03;;
78453;SDS011;67750;55.832;49.124;2023-07-29T00:38:04;10.03;;;6.37;;
78453;SDS011;67750;55.832;49.124;2023-07-29T00:40:35;11.35;;;6.75;;
78453;SDS011;67750;55.832;49.124;2023-07-29T00:43:04;10.60;;;6.70;;
78453;SDS011;67750;55.832;49.124;2023-07-29T00:45:35;10.13;;;5.70;;
78453;SDS011;67750;55.832;49.124;2023-07-29T00:48:07;10.35;;;6.20;;
78453;SDS011;67750;55.832;49.124;2023-07-29T00:50:36;7.85;;;5.90;;
78453;SDS011;67750;55.832;49.124;2023-07-29T00:53:06;8.03;;;5.62;;
78453;SDS011;67750;55.832;49.124;2023-07-29T00:55:36;11.33;;;6.10;;
78453;SDS011;67750;55.832;49.124;2023-07-29T00:58:06;8.28;;;5.20;;
78453;SDS011;67750;55.832;49.124;2023-07-29T01:00:36;11.93;;;5.50;;
78453;SDS011;67750;55.832;49.124;2023-07-29T01:03:06;13.15;;;5.08;;
78453;SDS011;67750;55.832;49.124;2023-07-29T01:05:37;11.15;;;6.05;;
78453;SDS011;67750;55.832;49.124;2023-07-29T01:17:08;12.55;;;7.40;;
78453;SDS011;67750;55.832;49.124;2023-07-29T01:19:08;19.25;;;7.22;;
78453;SDS011;67750;55.832;49.124;2023-07-29T01:21:39;19.02;;;7.12;;
78453;SDS011;67750;55.832;49.124;2023-07-29T01:24:09;15.32;;;6.78;;
78453;SDS011;67750;55.832;49.124;2023-07-29T01:26:39;14.80;;;7.53;;
78453;SDS011;67750;55.832;49.124;2023-07-29T01:29:09;11.73;;;6.92;;
78453;SDS011;67750;55.832;49.124;2023-07-29T01:31:42;14.20;;;8.25;;
78453;SDS011;67750;55.832;49.124;2023-07-29T01:37:00;13.03;;;9.08;;
78453;SDS011;67750;55.832;49.124;2023-07-29T01:39:32;16.50;;;9.05;;
78453;SDS011;67750;55.832;49.124;2023-07-29T01:42:03;14.35;;;8.58;;
78453;SDS011;67750;55.832;49.124;2023-07-29T01:44:33;16.48;;;9.98;;
78453;SDS011;67750;55.832;49.124;2023-07-29T01:47:03;17.32;;;9.90;;
78453;SDS011;67750;55.832;49.124;2023-07-29T01:49:34;17.52;;;10.15;;
78453;SDS011;67750;55.832;49.124;2023-07-29T01:52:04;12.78;;;8.90;;
78453;SDS011;67750;55.832;49.124;2023-07-29T01:54:34;16.50;;;9.83;;
78453;SDS011;67750;55.832;49.124;2023-07-29T01:57:03;18.05;;;9.98;;
78453;SDS011;67750;55.832;49.124;2023-07-29T01:59:33;15.10;;;8.33;;
78453;SDS011;67750;55.832;49.124;2023-07-29T02:02:03;14.90;;;9.20;;
78453;SDS011;67750;55.832;49.124;2023-07-29T02:04:32;11.03;;;8.98;;
78453;SDS011;67750;55.832;49.124;2023-07-29T02:07:02;12.58;;;8.83;;
78453;SDS011;67750;55.832;49.124;2023-07-29T02:09:32;16.15;;;10.08;;
78453;SDS011;67750;55.832;49.124;2023-07-29T02:12:01;12.58;;;8.03;;
78453;SDS011;67750;55.832;49.124;2023-07-29T02:14:33;11.30;;;9.33;;
78453;SDS011;67750;55.832;49.124;2023-07-29T02:17:02;13.62;;;8.23;;
78453;SDS011;67750;55.832;49.124;2023-07-29T02:19:34;13.75;;;8.48;;
78453;SDS011;67750;55.832;49.124;2023-07-29T02:22:03;13.25;;;8.58;;
78453;SDS011;67750;55.832;49.124;2023-07-29T02:24:33;13.75;;;9.28;;
78453;SDS011;67750;55.832;49.124;2023-07-29T02:27:03;15.38;;;9.30;;
78453;SDS011;67750;55.832;49.124;2023-07-29T02:29:32;15.88;;;9.28;;
78453;SDS011;67750;55.832;49.124;2023-07-29T02:32:02;14.75;;;10.18;;
78453;SDS011;67750;55.832;49.124;2023-07-29T02:34:33;17.70;;;11.05;;
78453;SDS011;67750;55.832;49.124;2023-07-29T02:37:03;15.50;;;11.90;;
78453;SDS011;67750;55.832;49.124;2023-07-29T02:39:33;14.98;;;11.05;;
78453;SDS011;67750;55.832;49.124;2023-07-29T02:42:03;15.70;;;10.18;;
78453;SDS011;67750;55.832;49.124;2023-07-29T02:44:32;16.42;;;8.25;;
78453;SDS011;67750;55.832;49.124;2023-07-29T02:47:03;15.55;;;11.10;;
78453;SDS011;67750;55.832;49.124;2023-07-29T02:49:32;13.22;;;9.20;;
78453;SDS011;67750;55.832;49.124;2023-07-29T02:52:02;11.80;;;8.70;;
78453;SDS011;67750;55.832;49.124;2023-07-29T02:54:32;14.10;;;8.88;;
78453;SDS011;67750;55.832;49.124;2023-07-29T02:57:01;12.40;;;8.70;;
78453;SDS011;67750;55.832;49.124;2023-07-29T02:59:31;12.95;;;9.95;;
78453;SDS011;67750;55.832;49.124;2023-07-29T03:02:01;13.10;;;9.65;;
78453;SDS011;67750;55.832;49.124;2023-07-29T03:04:30;13.28;;;8.50;;
78453;SDS011;67750;55.832;49.124;2023-07-29T03:07:00;12.98;;;10.48;;
78453;SDS011;67750;55.832;49.124;2023-07-29T03:09:30;15.18;;;8.90;;
78453;SDS011;67750;55.832;49.124;2023-07-29T03:12:00;12.65;;;9.43;;
78453;SDS011;67750;55.832;49.124;2023-07-29T03:14:29;16.27;;;9.28;;
78453;SDS011;67750;55.832;49.124;2023-07-29T03:17:02;19.12;;;9.03;;
78453;SDS011;67750;55.832;49.124;2023-07-29T03:19:31;14.85;;;8.75;;
78453;SDS011;67750;55.832;49.124;2023-07-29T03:22:01;11.28;;;8.15;;
78453;SDS011;67750;55.832;49.124;2023-07-29T03:24:30;12.88;;;8.48;;
78453;SDS011;67750;55.832;49.124;2023-07-29T03:27:00;11.55;;;8.38;;
78453;SDS011;67750;55.832;49.124;2023-07-29T03:29:30;10.32;;;8.40;;
78453;SDS011;67750;55.832;49.124;2023-07-29T03:34:49;10.55;;;8.23;;
78453;SDS011;67750;55.832;49.124;2023-07-29T03:37:19;10.03;;;8.20;;
78453;SDS011;67750;55.832;49.124;2023-07-29T03:39:49;13.30;;;8.40;;
78453;SDS011;67750;55.832;49.124;2023-07-29T03:42:19;12.65;;;8.23;;
78453;SDS011;67750;55.832;49.124;2023-07-29T03:44:48;15.78;;;8.18;;
78453;SDS011;67750;55.832;49.124;2023-07-29T03:47:18;14.63;;;8.38;;
78453;SDS011;67750;55.832;49.124;2023-07-29T03:49:48;11.48;;;8.15;;
78453;SDS011;67750;55.832;49.124;2023-07-29T03:52:19;15.13;;;9.43;;
78453;SDS011;67750;55.832;49.124;2023-07-29T03:54:48;11.65;;;8.38;;
78453;SDS011;67750;55.832;49.124;2023-07-29T03:57:18;13.80;;;8.53;;
78453;SDS011;67750;55.832;49.124;2023-07-29T03:59:47;13.70;;;8.13;;
78453;SDS011;67750;55.832;49.124;2023-07-29T04:02:18;13.60;;;8.10;;
78453;SDS011;67750;55.832;49.124;2023-07-29T04:04:47;12.03;;;8.03;;
78453;SDS011;67750;55.832;49.124;2023-07-29T04:07:17;11.73;;;7.78;;
78453;SDS011;67750;55.832;49.124;2023-07-29T04:09:47;13.18;;;8.48;;
78453;SDS011;67750;55.832;49.124;2023-07-29T04:12:16;11.75;;;7.25;;
78453;SDS011;67750;55.832;49.124;2023-07-29T04:14:47;14.25;;;8.18;;
78453;SDS011;67750;55.832;49.124;2023-07-29T04:17:17;15.35;;;8.50;;
78453;SDS011;67750;55.832;49.124;2023-07-29T04:19:46;13.20;;;7.97;;
78453;SDS011;67750;55.832;49.124;2023-07-29T04:22:16;11.75;;;8.38;;
78453;SDS011;67750;55.832;49.124;2023-07-29T04:24:46;11.03;;;8.15;;
78453;SDS011;67750;55.832;49.124;2023-07-29T04:27:16;15.78;;;8.35;;
78453;SDS011;67750;55.832;49.124;2023-07-29T04:29:45;15.75;;;8.63;;
78453;SDS011;67750;55.832;49.124;2023-07-29T04:32:15;13.75;;;8.35;;
78453;SDS011;67750;55.832;49.124;2023-07-29T04:34:46;11.45;;;8.48;;
78453;SDS011;67750;55.832;49.124;2023-07-29T04:37:15;13.13;;;8.30;;
78453;SDS011;67750;55.832;49.124;2023-07-29T04:39:45;12.00;;;8.05;;
78453;SDS011;67750;55.832;49.124;2023-07-29T04:42:16;13.43;;;7.87;;
78453;SDS011;67750;55.832;49.124;2023-07-29T04:44:45;9.65;;;8.00;;
78453;SDS011;67750;55.832;49.124;2023-07-29T04:47:15;12.80;;;7.65;;
78453;SDS011;67750;55.832;49.124;2023-07-29T04:49:45;12.65;;;8.68;;
78453;SDS011;67750;55.832;49.124;2023-07-29T04:52:14;13.65;;;8.08;;
78453;SDS011;67750;55.832;49.124;2023-07-29T04:54:45;11.05;;;8.40;;
78453;SDS011;67750;55.832;49.124;2023-07-29T04:57:15;13.90;;;7.92;;
78453;SDS011;67750;55.832;49.124;2023-07-29T04:59:44;13.03;;;7.95;;
78453;SDS011;67750;55.832;49.124;2023-07-29T05:02:14;10.08;;;7.90;;
78453;SDS011;67750;55.832;49.124;2023-07-29T05:04:44;9.08;;;7.83;;
78453;SDS011;67750;55.832;49.124;2023-07-29T05:07:14;12.60;;;8.40;;
78453;SDS011;67750;55.832;49.124;2023-07-29T05:09:43;14.23;;;8.33;;
78453;SDS011;67750;55.832;49.124;2023-07-29T05:12:13;13.78;;;9.10;;
78453;SDS011;67750;55.832;49.124;2023-07-29T05:14:43;16.00;;;8.33;;
78453;SDS011;67750;55.832;49.124;2023-07-29T05:17:13;13.15;;;8.40;;
78453;SDS011;67750;55.832;49.124;2023-07-29T05:19:42;13.98;;;9.25;;
78453;SDS011;67750;55.832;49.124;2023-07-29T05:22:12;13.75;;;8.50;;
78453;SDS011;67750;55.832;49.124;2023-07-29T05:24:42;13.38;;;8.20;;
78453;SDS011;67750;55.832;49.124;2023-07-29T05:27:11;15.65;;;8.88;;
78453;SDS011;67750;55.832;49.124;2023-07-29T05:29:41;15.50;;;8.78;;
78453;SDS011;67750;55.832;49.124;2023-07-29T05:32:10;13.30;;;8.78;;
78453;SDS011;67750;55.832;49.124;2023-07-29T05:34:41;13.30;;;9.10;;
78453;SDS011;67750;55.832;49.124;2023-07-29T05:37:11;12.40;;;8.63;;
78453;SDS011;67750;55.832;49.124;2023-07-29T05:39:41;14.80;;;9.70;;
78453;SDS011;67750;55.832;49.124;2023-07-29T05:42:11;14.25;;;9.03;;
78453;SDS011;67750;55.832;49.124;2023-07-29T05:44:41;13.32;;;8.85;;
78453;SDS011;67750;55.832;49.124;2023-07-29T05:47:12;14.38;;;9.20;;
78453;SDS011;67750;55.832;49.124;2023-07-29T05:49:42;12.93;;;8.53;;
78453;SDS011;67750;55.832;49.124;2023-07-29T05:52:11;17.82;;;8.40;;
78453;SDS011;67750;55.832;49.124;2023-07-29T05:54:41;12.18;;;8.23;;
78453;SDS011;67750;55.832;49.124;2023-07-29T05:57:11;17.98;;;8.25;;
78453;SDS011;67750;55.832;49.124;2023-07-29T05:59:41;11.03;;;8.73;;
78453;SDS011;67750;55.832;49.124;2023-07-29T06:02:11;13.68;;;8.90;;
78453;SDS011;67750;55.832;49.124;2023-07-29T06:04:40;16.12;;;9.55;;
78453;SDS011;67750;55.832;49.124;2023-07-29T06:07:10;14.95;;;9.10;;
78453;SDS011;67750;55.832;49.124;2023-07-29T06:09:40;13.40;;;7.95;;
78453;SDS011;67750;55.832;49.124;2023-07-29T06:12:09;14.10;;;9.40;;
78453;SDS011;67750;55.832;49.124;2023-07-29T06:14:38;12.73;;;9.40;;
78453;SDS011;67750;55.832;49.124;2023-07-29T06:17:09;13.05;;;9.25;;
78453;SDS011;67750;55.832;49.124;2023-07-29T06:19:38;11.10;;;8.38;;
78453;SDS011;67750;55.832;49.124;2023-07-29T06:22:09;13.95;;;8.48;;
78453;SDS011;67750;55.832;49.124;2023-07-29T06:24:39;14.83;;;9.03;;
78453;SDS011;67750;55.832;49.124;2023-07-29T06:27:08;14.40;;;9.23;;
78453;SDS011;67750;55.832;49.124;2023-07-29T06:29:38;24.32;;;8.83;;
78453;SDS011;67750;55.832;49.124;2023-07-29T06:32:07;14.38;;;8.65;;
78453;SDS011;67750;55.832;49.124;2023-07-29T06:34:37;16.10;;;8.78;;
78453;SDS011;67750;55.832;49.124;2023-07-29T06:37:06;11.75;;;8.18;;
78453;SDS011;67750;55.832;49.124;2023-07-29T06:39:36;14.75;;;9.60;;
78453;SDS011;67750;55.832;49.124;2023-07-29T06:42:05;12.15;;;9.08;;
78453;SDS011;67750;55.832;49.124;2023-07-29T06:44:35;12.98;;;8.48;;
78453;SDS011;67750;55.832;49.124;2023-07-29T06:47:06;13.18;;;9.90;;
78453;SDS011;67750;55.832;49.124;2023-07-29T06:49:35;14.38;;;9.13;;
78453;SDS011;67750;55.832;49.124;2023-07-29T06:52:05;13.83;;;10.10;;
78453;SDS011;67750;55.832;49.124;2023-07-29T06:54:35;14.50;;;9.58;;
78453;SDS011;67750;55.832;49.124;2023-07-29T06:57:05;14.43;;;8.70;;
78453;SDS011;67750;55.832;49.124;2023-07-29T07:02:04;13.90;;;9.40;;
78453;SDS011;67750;55.832;49.124;2023-07-29T07:04:35;17.20;;;10.00;;
78453;SDS011;67750;55.832;49.124;2023-07-29T07:07:05;17.62;;;9.58;;
78453;SDS011;67750;55.832;49.124;2023-07-29T07:09:34;16.37;;;9.80;;
78453;SDS011;67750;55.832;49.124;2023-07-29T07:12:04;10.38;;;9.28;;
78453;SDS011;67750;55.832;49.124;2023-07-29T07:14:34;12.80;;;9.40;;
78453;SDS011;67750;55.832;49.124;2023-07-29T07:17:04;14.40;;;9.40;;
78453;SDS011;67750;55.832;49.124;2023-07-29T07:19:33;14.85;;;8.98;;
78453;SDS011;67750;55.832;49.124;2023-07-29T07:22:04;21.95;;;10.03;;
78453;SDS011;67750;55.832;49.124;2023-07-29T07:24:33;14.30;;;8.18;;
78453;SDS011;67750;55.832;49.124;2023-07-29T07:27:03;14.10;;;9.38;;
78453;SDS011;67750;55.832;49.124;2023-07-29T07:29:33;14.98;;;9.20;;
78453;SDS011;67750;55.832;49.124;2023-07-29T07:32:03;16.23;;;9.28;;
78453;SDS011;67750;55.832;49.124;2023-07-29T07:34:33;10.68;;;8.33;;
78453;SDS011;67750;55.832;49.124;2023-07-29T07:37:04;14.10;;;9.43;;
78453;SDS011;67750;55.832;49.124;2023-07-29T07:39:34;15.55;;;8.23;;
78453;SDS011;67750;55.832;49.124;2023-07-29T07:42:04;14.63;;;9.63;;
78453;SDS011;67750;55.832;49.124;2023-07-29T07:44:34;14.58;;;9.78;;
78453;SDS011;67750;55.832;49.124;2023-07-29T07:47:03;13.10;;;8.78;;
78453;SDS011;67750;55.832;49.124;2023-07-29T07:49:33;14.63;;;9.18;;
78453;SDS011;67750;55.832;49.124;2023-07-29T07:52:03;16.27;;;9.53;;
78453;SDS011;67750;55.832;49.124;2023-07-29T07:54:33;13.45;;;9.40;;
78453;SDS011;67750;55.832;49.124;2023-07-29T07:57:03;11.90;;;8.53;;
78453;SDS011;67750;55.832;49.124;2023-07-29T07:59:33;12.82;;;9.60;;
78453;SDS011;67750;55.832;49.124;2023-07-29T08:02:02;13.88;;;9.40;;
78453;SDS011;67750;55.832;49.124;2023-07-29T08:04:34;14.33;;;9.68;;
78453;SDS011;67750;55.832;49.124;2023-07-29T08:07:04;19.90;;;9.50;;
78453;SDS011;67750;55.832;49.124;2023-07-29T08:09:33;13.95;;;8.38;;
78453;SDS011;67750;55.832;49.124;2023-07-29T08:12:03;13.10;;;8.95;;
78453;SDS011;67750;55.832;49.124;2023-07-29T08:14:33;15.35;;;9.50;;
78453;SDS011;67750;55.832;49.124;2023-07-29T08:17:03;13.13;;;9.60;;
78453;SDS011;67750;55.832;49.124;2023-07-29T08:19:33;17.12;;;9.60;;
78453;SDS011;67750;55.832;49.124;2023-07-29T08:22:02;14.85;;;8.93;;
78453;SDS011;67750;55.832;49.124;2023-07-29T08:24:32;16.45;;;8.98;;
78453;SDS011;67750;55.832;49.124;2023-07-29T08:27:02;11.55;;;8.78;;
78453;SDS011;67750;55.832;49.124;2023-07-29T08:29:32;13.93;;;9.18;;
78453;SDS011;67750;55.832;49.124;2023-07-29T08:32:02;14.20;;;8.23;;
78453;SDS011;67750;55.832;49.124;2023-07-29T08:37:21;10.90;;;8.13;;
78453;SDS011;67750;55.832;49.124;2023-07-29T08:39:51;15.08;;;8.73;;
78453;SDS011;67750;55.832;49.124;2023-07-29T08:42:22;14.15;;;8.58;;
78453;SDS011;67750;55.832;49.124;2023-07-29T08:44:52;17.25;;;8.78;;
78453;SDS011;67750;55.832;49.124;2023-07-29T08:47:23;14.98;;;8.78;;
78453;SDS011;67750;55.832;49.124;2023-07-29T08:49:53;16.12;;;9.40;;
78453;SDS011;67750;55.832;49.124;2023-07-29T08:52:23;22.07;;;9.65;;
78453;SDS011;67750;55.832;49.124;2023-07-29T08:54:53;14.35;;;8.93;;
78453;SDS011;67750;55.832;49.124;2023-07-29T08:57:23;19.37;;;9.53;;
78453;SDS011;67750;55.832;49.124;2023-07-29T09:02:21;18.12;;;8.75;;
78453;SDS011;67750;55.832;49.124;2023-07-29T09:04:51;11.73;;;8.35;;
78453;SDS011;67750;55.832;49.124;2023-07-29T09:07:21;14.73;;;8.53;;
78453;SDS011;67750;55.832;49.124;2023-07-29T09:09:50;16.85;;;8.50;;
78453;SDS011;67750;55.832;49.124;2023-07-29T09:12:20;12.43;;;7.47;;
78453;SDS011;67750;55.832;49.124;2023-07-29T09:17:40;15.85;;;8.23;;
78453;SDS011;67750;55.832;49.124;2023-07-29T09:20:10;12.35;;;8.30;;
78453;SDS011;67750;55.832;49.124;2023-07-29T09:22:39;13.35;;;8.20;;
78453;SDS011;67750;55.832;49.124;2023-07-29T09:25:09;15.88;;;8.15;;
78453;SDS011;67750;55.832;49.124;2023-07-29T09:27:40;11.55;;;8.38;;
78453;SDS011;67750;55.832;49.124;2023-07-29T09:32:59;15.43;;;7.90;;
78453;SDS011;67750;55.832;49.124;2023-07-29T09:35:32;17.05;;;8.43;;
78453;SDS011;67750;55.832;49.124;2023-07-29T09:38:02;11.97;;;7.30;;
78453;SDS011;67750;55.832;49.124;2023-07-29T09:43:00;13.18;;;6.83;;
78453;SDS011;67750;55.832;49.124;2023-07-29T09:45:32;10.28;;;7.47;;
78453;SDS011;67750;55.832;49.124;2023-07-29T09:48:02;15.38;;;8.28;;
78453;SDS011;67750;55.832;49.124;2023-07-29T09:50:34;14.80;;;7.90;;
78453;SDS011;67750;55.832;49.124;2023-07-29T09:53:03;11.20;;;7.15;;
78453;SDS011;67750;55.832;49.124;2023-07-29T09:55:33;10.58;;;7.70;;
78453;SDS011;67750;55.832;49.124;2023-07-29T09:58:03;9.55;;;7.37;;
78453;SDS011;67750;55.832;49.124;2023-07-29T10:00:35;15.03;;;8.05;;
78453;SDS011;67750;55.832;49.124;2023-07-29T10:03:06;12.23;;;8.23;;
78453;SDS011;67750;55.832;49.124;2023-07-29T10:05:35;10.95;;;7.83;;
78453;SDS011;67750;55.832;49.124;2023-07-29T10:08:06;12.40;;;7.42;;
78453;SDS011;67750;55.832;49.124;2023-07-29T10:10:36;8.78;;;7.58;;
78453;SDS011;67750;55.832;49.124;2023-07-29T10:13:05;10.68;;;7.25;;
78453;SDS011;67750;55.832;49.124;2023-07-29T10:15:35;9.38;;;6.97;;
78453;SDS011;67750;55.832;49.124;2023-07-29T10:18:10;16.32;;;7.22;;
78453;SDS011;67750;55.832;49.124;2023-07-29T10:23:53;12.00;;;7.05;;
78453;SDS011;67750;55.832;49.124;2023-07-29T10:26:24;9.68;;;6.58;;
78453;SDS011;67750;55.832;49.124;2023-07-29T10:28:55;11.65;;;6.67;;
78453;SDS011;67750;55.832;49.124;2023-07-29T10:31:28;15.13;;;7.47;;
78453;SDS011;67750;55.832;49.124;2023-07-29T10:33:58;13.25;;;7.45;;
78453;SDS011;67750;55.832;49.124;2023-07-29T10:36:28;17.82;;;7.97;;
78453;SDS011;67750;55.832;49.124;2023-07-29T10:38:58;11.95;;;6.65;;
78453;SDS011;67750;55.832;49.124;2023-07-29T11:00:58;14.40;;;7.83;;
78453;SDS011;67750;55.832;49.124;2023-07-29T11:03:28;12.55;;;7.50;;
78453;SDS011;67750;55.832;49.124;2023-07-29T11:05:58;13.05;;;6.47;;
78453;SDS011;67750;55.832;49.124;2023-07-29T11:08:29;15.90;;;6.85;;
78453;SDS011;67750;55.832;49.124;2023-07-29T11:11:01;10.95;;;7.10;;
78453;SDS011;67750;55.832;49.124;2023-07-29T11:13:32;10.95;;;6.17;;
78453;SDS011;67750;55.832;49.124;2023-07-29T11:16:02;13.00;;;6.80;;
78453;SDS011;67750;55.832;49.124;2023-07-29T11:18:33;11.18;;;6.20;;
78453;SDS011;67750;55.832;49.124;2023-07-29T11:21:03;12.28;;;6.15;;
78453;SDS011;67750;55.832;49.124;2023-07-29T11:23:34;14.63;;;6.53;;
78453;SDS011;67750;55.832;49.124;2023-07-29T11:26:04;13.22;;;6.45;;
78453;SDS011;67750;55.832;49.124;2023-07-29T11:28:37;9.88;;;5.28;;
78453;SDS011;67750;55.832;49.124;2023-07-29T11:31:05;13.80;;;6.60;;
78453;SDS011;67750;55.832;49.124;2023-07-29T11:33:35;13.90;;;5.92;;
78453;SDS011;67750;55.832;49.124;2023-07-29T11:36:04;11.83;;;6.95;;
78453;SDS011;67750;55.832;49.124;2023-07-29T11:38:34;11.57;;;6.60;;
78453;SDS011;67750;55.832;49.124;2023-07-29T11:41:05;12.95;;;6.90;;
78453;SDS011;67750;55.832;49.124;2023-07-29T11:43:35;8.25;;;6.05;;
78453;SDS011;67750;55.832;49.124;2023-07-29T11:46:04;11.18;;;6.70;;
78453;SDS011;67750;55.832;49.124;2023-07-29T11:48:34;15.60;;;6.92;;
78453;SDS011;67750;55.832;49.124;2023-07-29T11:51:04;10.08;;;7.15;;
78453;SDS011;67750;55.832;49.124;2023-07-29T11:53:33;9.38;;;6.60;;
78453;SDS011;67750;55.832;49.124;2023-07-29T11:56:03;11.45;;;6.67;;
78453;SDS011;67750;55.832;49.124;2023-07-29T11:58:32;8.95;;;5.87;;
78453;SDS011;67750;55.832;49.124;2023-07-29T12:01:03;13.28;;;6.37;;
78453;SDS011;67750;55.832;49.124;2023-07-29T12:03:32;14.85;;;6.75;;
78453;SDS011;67750;55.832;49.124;2023-07-29T12:06:02;11.68;;;6.33;;
78453;SDS011;67750;55.832;49.124;2023-07-29T12:08:31;14.65;;;6.33;;
78453;SDS011;67750;55.832;49.124;2023-07-29T12:11:01;13.93;;;6.08;;
78453;SDS011;67750;55.832;49.124;2023-07-29T12:13:31;10.75;;;5.75;;
78453;SDS011;67750;55.832;49.124;2023-07-29T12:16:01;10.68;;;6.12;;
78453;SDS011;67750;55.832;49.124;2023-07-29T12:20:59;14.15;;;5.72;;
78453;SDS011;67750;55.832;49.124;2023-07-29T12:23:29;9.35;;;5.87;;
78453;SDS011;67750;55.832;49.124;2023-07-29T12:25:59;13.45;;;6.53;;
78453;SDS011;67750;55.832;49.124;2023-07-29T12:28:29;11.45;;;5.50;;
78453;SDS011;67750;55.832;49.124;2023-07-29T12:30:59;11.05;;;5.92;;
78453;SDS011;67750;55.832;49.124;2023-07-29T12:36:20;13.20;;;6.17;;
78453;SDS011;67750;55.832;49.124;2023-07-29T12:38:49;14.58;;;6.08;;
78453;SDS011;67750;55.832;49.124;2023-07-29T12:41:19;16.90;;;6.97;;
78453;SDS011;67750;55.832;49.124;2023-07-29T12:43:48;8.10;;;6.05;;
78453;SDS011;67750;55.832;49.124;2023-07-29T12:46:18;12.68;;;6.67;;
78453;SDS011;67750;55.832;49.124;2023-07-29T12:48:47;14.40;;;5.53;;
78453;SDS011;67750;55.832;49.124;2023-07-29T12:51:17;12.85;;;6.83;;
78453;SDS011;67750;55.832;49.124;2023-07-29T12:53:47;14.45;;;6.95;;
78453;SDS011;67750;55.832;49.124;2023-07-29T12:56:16;10.88;;;6.58;;
78453;SDS011;67750;55.832;49.124;2023-07-29T12:58:46;15.75;;;6.15;;
78453;SDS011;67750;55.832;49.124;2023-07-29T13:01:15;12.10;;;6.35;;
78453;SDS011;67750;55.832;49.124;2023-07-29T13:03:45;16.10;;;6.22;;
78453;SDS011;67750;55.832;49.124;2023-07-29T13:06:14;12.95;;;6.65;;
78453;SDS011;67750;55.832;49.124;2023-07-29T13:08:45;16.12;;;6.55;;
78453;SDS011;67750;55.832;49.124;2023-07-29T13:11:15;13.50;;;6.83;;
78453;SDS011;67750;55.832;49.124;2023-07-29T13:13:45;13.28;;;6.87;;
78453;SDS011;67750;55.832;49.124;2023-07-29T13:16:14;8.95;;;6.33;;
78453;SDS011;67750;55.832;49.124;2023-07-29T13:18:44;14.10;;;7.05;;
78453;SDS011;67750;55.832;49.124;2023-07-29T13:21:13;13.32;;;6.53;;
78453;SDS011;67750;55.832;49.124;2023-07-29T13:23:43;14.78;;;6.17;;
78453;SDS011;67750;55.832;49.124;2023-07-29T13:26:12;10.35;;;6.87;;
78453;SDS011;67750;55.832;49.124;2023-07-29T13:31:31;17.55;;;6.75;;
78453;SDS011;67750;55.832;49.124;2023-07-29T13:34:01;11.18;;;6.25;;
78453;SDS011;67750;55.832;49.124;2023-07-29T13:36:30;12.37;;;6.22;;
78453;SDS011;67750;55.832;49.124;2023-07-29T13:39:00;10.60;;;5.67;;
78453;SDS011;67750;55.832;49.124;2023-07-29T13:41:29;10.65;;;5.95;;
78453;SDS011;67750;55.832;49.124;2023-07-29T13:43:59;12.60;;;6.40;;
78453;SDS011;67750;55.832;49.124;2023-07-29T13:46:29;13.40;;;5.90;;
78453;SDS011;67750;55.832;49.124;2023-07-29T13:48:58;11.18;;;7.35;;
78453;SDS011;67750;55.832;49.124;2023-07-29T13:51:28;17.05;;;6.30;;
78453;SDS011;67750;55.832;49.124;2023-07-29T13:53:57;14.55;;;7.15;;
78453;SDS011;67750;55.832;49.124;2023-07-29T13:56:27;13.48;;;7.33;;
78453;SDS011;67750;55.832;49.124;2023-07-29T13:58:56;20.00;;;7.62;;
78453;SDS011;67750;55.832;49.124;2023-07-29T14:01:26;20.37;;;6.45;;
78453;SDS011;67750;55.832;49.124;2023-07-29T14:03:55;15.18;;;7.42;;
78453;SDS011;67750;55.832;49.124;2023-07-29T14:06:25;13.65;;;7.28;;
78453;SDS011;67750;55.832;49.124;2023-07-29T14:08:55;13.80;;;6.75;;
78453;SDS011;67750;55.832;49.124;2023-07-29T14:11:24;13.78;;;6.58;;
78453;SDS011;67750;55.832;49.124;2023-07-29T14:13:54;14.23;;;7.22;;
78453;SDS011;67750;55.832;49.124;2023-07-29T14:16:23;13.62;;;7.25;;
78453;SDS011;67750;55.832;49.124;2023-07-29T14:18:53;11.43;;;6.08;;
78453;SDS011;67750;55.832;49.124;2023-07-29T14:21:22;12.55;;;7.15;;
78453;SDS011;67750;55.832;49.124;2023-07-29T14:23:51;15.78;;;7.17;;
78453;SDS011;67750;55.832;49.124;2023-07-29T14:26:21;16.95;;;8.45;;
78453;SDS011;67750;55.832;49.124;2023-07-29T14:28:51;16.57;;;7.22;;
78453;SDS011;67750;55.832;49.124;2023-07-29T14:31:20;14.68;;;6.85;;
78453;SDS011;67750;55.832;49.124;2023-07-29T14:33:50;14.00;;;6.83;;
78453;SDS011;67750;55.832;49.124;2023-07-29T14:36:19;12.47;;;7.37;;
78453;SDS011;67750;55.832;49.124;2023-07-29T14:38:49;13.32;;;7.17;;
78453;SDS011;67750;55.832;49.124;2023-07-29T14:41:18;13.80;;;6.20;;
78453;SDS011;67750;55.832;49.124;2023-07-29T14:43:48;12.95;;;6.85;;
78453;SDS011;67750;55.832;49.124;2023-07-29T14:46:17;13.50;;;6.55;;
78453;SDS011;67750;55.832;49.124;2023-07-29T14:48:47;12.75;;;7.50;;
78453;SDS011;67750;55.832;49.124;2023-07-29T14:51:16;12.35;;;7.03;;
78453;SDS011;67750;55.832;49.124;2023-07-29T14:53:46;11.83;;;7.00;;
78453;SDS011;67750;55.832;49.124;2023-07-29T14:56:16;15.80;;;7.35;;
78453;SDS011;67750;55.832;49.124;2023-07-29T14:58:46;13.05;;;7.55;;
78453;SDS011;67750;55.832;49.124;2023-07-29T15:01:17;14.85;;;6.95;;
78453;SDS011;67750;55.832;49.124;2023-07-29T15:03:47;18.45;;;6.47;;
78453;SDS011;67750;55.832;49.124;2023-07-29T15:06:16;9.93;;;6.97;;
78453;SDS011;67750;55.832;49.124;2023-07-29T15:08:46;15.95;;;7.03;;
78453;SDS011;67750;55.832;49.124;2023-07-29T15:11:15;10.85;;;6.40;;
78453;SDS011;67750;55.832;49.124;2023-07-29T15:13:45;17.40;;;6.70;;
78453;SDS011;67750;55.832;49.124;2023-07-29T15:16:14;11.73;;;6.05;;
78453;SDS011;67750;55.832;49.124;2023-07-29T15:18:44;38.42;;;5.95;;
78453;SDS011;67750;55.832;49.124;2023-07-29T15:21:14;77.05;;;7.85;;
78453;SDS011;67750;55.832;49.124;2023-07-29T15:23:44;99.32;;;8.80;;
78453;SDS011;67750;55.832;49.124;2023-07-29T15:26:14;122.80;;;12.37;;
78453;SDS011;67750;55.832;49.124;2023-07-29T15:28:43;81.25;;;8.18;;
78453;SDS011;67750;55.832;49.124;2023-07-29T15:31:13;30.70;;;5.60;;
78453;SDS011;67750;55.832;49.124;2023-07-29T15:33:43;21.70;;;4.37;;
78453;SDS011;67750;55.832;49.124;2023-07-29T15:36:12;25.23;;;6.62;;
78453;SDS011;67750;55.832;49.124;2023-07-29T15:38:42;21.75;;;6.22;;